createdAt,value
2023-05-23T00:00:15.520Z,10.85
2023-05-23T00:02:43.820Z,10.18
2023-05-23T00:05:10.700Z,8.50
2023-05-23T00:07:37.516Z,9.13
2023-05-23T00:10:04.898Z,7.85
2023-05-23T00:12:31.617Z,8.38
2023-05-23T00:14:58.334Z,7.88
2023-05-23T00:17:28.102Z,10.50
2023-05-23T00:19:56.104Z,8.00
2023-05-23T00:22:23.075Z,7.22
2023-05-23T00:24:49.849Z,10.98
2023-05-23T00:27:16.587Z,7.55
2023-05-23T00:29:43.291Z,8.57
2023-05-23T00:32:10.061Z,8.18
2023-05-23T00:34:37.710Z,7.47
2023-05-23T00:37:05.147Z,7.13
2023-05-23T00:39:31.927Z,8.93
2023-05-23T00:41:58.653Z,8.35
2023-05-23T00:44:26.201Z,7.88
2023-05-23T00:46:56.294Z,9.75
2023-05-23T00:49:24.354Z,10.15
2023-05-23T00:51:52.424Z,8.23
2023-05-23T00:54:24.442Z,9.13
2023-05-23T00:56:51.429Z,12.02
2023-05-23T00:59:18.432Z,8.25
2023-05-23T01:01:46.900Z,10.18
2023-05-23T01:04:14.781Z,8.02
2023-05-23T01:06:41.574Z,10.93
2023-05-23T01:09:09.679Z,13.55
2023-05-23T01:12:27.944Z,10.30
2023-05-23T01:15:06.523Z,11.20
2023-05-23T01:17:55.148Z,10.90
2023-05-23T01:20:24.173Z,10.65
2023-05-23T01:23:02.578Z,12.70
2023-05-23T01:26:13.223Z,11.60
2023-05-23T01:28:47.029Z,11.52
2023-05-23T01:31:15.919Z,10.25
2023-05-23T01:33:43.853Z,11.90
2023-05-23T01:36:14.273Z,13.95
2023-05-23T01:38:41.000Z,11.35
2023-05-23T01:41:07.756Z,12.25
2023-05-23T01:43:34.622Z,12.63
2023-05-23T01:46:02.212Z,11.20
2023-05-23T01:48:30.271Z,9.95
2023-05-23T01:50:58.863Z,13.30
2023-05-23T01:53:26.825Z,12.57
2023-05-23T01:55:54.192Z,11.27
2023-05-23T01:58:22.008Z,10.48
2023-05-23T02:00:48.914Z,10.73
2023-05-23T02:03:16.105Z,10.05
2023-05-23T02:05:43.314Z,14.35
2023-05-23T02:08:10.175Z,10.43
2023-05-23T02:10:38.218Z,11.35
2023-05-23T02:13:04.913Z,11.88
2023-05-23T02:15:31.708Z,11.98
2023-05-23T02:17:58.594Z,11.30
2023-05-23T02:20:25.921Z,13.35
2023-05-23T02:22:52.734Z,11.80
2023-05-23T02:25:19.569Z,13.57
2023-05-23T02:27:46.277Z,11.90
2023-05-23T02:30:13.467Z,10.60
2023-05-23T02:32:40.312Z,12.82
2023-05-23T02:35:09.033Z,11.18
2023-05-23T02:37:35.840Z,11.68
2023-05-23T02:40:07.530Z,12.60
2023-05-23T02:42:34.541Z,11.88
2023-05-23T02:45:01.697Z,14.57
2023-05-23T02:47:28.490Z,12.88
2023-05-23T02:49:55.389Z,12.18
2023-05-23T02:52:22.168Z,9.98
2023-05-23T02:54:48.999Z,15.27
2023-05-23T02:57:15.817Z,11.57
2023-05-23T02:59:42.695Z,10.98
2023-05-23T03:02:09.619Z,10.63
2023-05-23T03:04:38.149Z,13.38
2023-05-23T03:07:11.537Z,11.18
2023-05-23T03:09:44.081Z,13.95
2023-05-23T03:12:11.055Z,13.30
2023-05-23T03:14:38.064Z,12.65
2023-05-23T03:17:05.196Z,11.55
2023-05-23T03:19:34.155Z,14.20
2023-05-23T03:22:02.537Z,16.05
2023-05-23T03:24:29.438Z,13.70
2023-05-23T03:26:56.301Z,14.25
2023-05-23T03:29:23.905Z,12.85
2023-05-23T03:31:50.872Z,13.05
2023-05-23T03:34:18.015Z,12.40
2023-05-23T03:36:44.897Z,13.85
2023-05-23T03:39:12.435Z,14.30
2023-05-23T03:41:39.280Z,16.27
2023-05-23T03:44:06.363Z,15.65
2023-05-23T03:46:33.318Z,15.15
2023-05-23T03:49:00.452Z,13.00
2023-05-23T03:51:28.270Z,12.55
2023-05-23T03:53:55.390Z,45.58
2023-05-23T03:56:23.547Z,48.28
2023-05-23T03:58:50.952Z,21.85
2023-05-23T04:01:17.965Z,18.92
2023-05-23T04:03:47.085Z,13.82
2023-05-23T04:06:17.265Z,14.48
2023-05-23T04:08:46.293Z,12.65
2023-05-23T04:11:13.166Z,13.10
2023-05-23T04:13:42.786Z,13.75
2023-05-23T04:16:11.058Z,11.60
2023-05-23T04:18:39.303Z,12.65
2023-05-23T04:21:07.345Z,14.50
2023-05-23T04:23:38.492Z,13.23
2023-05-23T04:26:06.777Z,11.23
2023-05-23T04:28:35.923Z,13.18
2023-05-23T04:31:03.234Z,13.10
2023-05-23T04:33:34.234Z,11.55
2023-05-23T04:36:02.629Z,13.27
2023-05-23T04:38:29.415Z,13.15
2023-05-23T04:40:58.006Z,15.90
2023-05-23T04:43:46.040Z,15.13
2023-05-23T04:46:26.849Z,16.75
2023-05-23T04:49:17.103Z,19.48
2023-05-23T04:51:44.187Z,16.83
2023-05-23T04:54:21.495Z,17.58
2023-05-23T04:56:48.210Z,14.48
2023-05-23T04:59:17.882Z,15.35
2023-05-23T05:01:44.807Z,15.10
2023-05-23T05:04:13.009Z,16.48
2023-05-23T05:06:41.319Z,17.02
2023-05-23T05:09:09.210Z,15.77
2023-05-23T05:11:35.985Z,18.23
2023-05-23T05:14:03.290Z,16.73
2023-05-23T05:16:30.767Z,17.70
2023-05-23T05:18:57.732Z,19.02
2023-05-23T05:21:24.479Z,19.23
2023-05-23T05:23:51.525Z,20.70
2023-05-23T05:26:18.478Z,17.63
2023-05-23T05:28:45.278Z,17.95
2023-05-23T05:31:15.290Z,19.95
2023-05-23T05:33:45.766Z,21.13
2023-05-23T05:36:14.454Z,18.87
2023-05-23T05:38:41.774Z,19.27
2023-05-23T05:41:09.415Z,16.80
2023-05-23T05:43:39.978Z,15.77
2023-05-23T05:46:06.770Z,17.50
2023-05-23T05:48:34.173Z,17.25
2023-05-23T05:51:05.454Z,16.85
2023-05-23T05:53:33.717Z,19.42
2023-05-23T05:56:02.724Z,18.10
2023-05-23T05:58:30.741Z,16.58
2023-05-23T06:01:03.646Z,18.45
2023-05-23T06:03:30.603Z,16.20
2023-05-23T06:05:58.266Z,18.90
2023-05-23T06:08:25.350Z,20.90
2023-05-23T06:10:52.214Z,18.42
2023-05-23T06:13:18.949Z,16.58
2023-05-23T06:15:51.097Z,16.50
2023-05-23T06:18:17.886Z,18.30
2023-05-23T06:20:45.038Z,16.13
2023-05-23T06:23:15.461Z,17.70
2023-05-23T06:25:42.536Z,19.98
2023-05-23T06:28:09.308Z,18.88
2023-05-23T06:30:38.027Z,17.05
2023-05-23T06:33:05.352Z,15.95
2023-05-23T06:35:32.152Z,16.58
2023-05-23T06:38:01.134Z,14.82
2023-05-23T06:40:27.908Z,17.27
2023-05-23T06:42:55.731Z,16.35
2023-05-23T06:45:38.929Z,20.30
2023-05-23T06:48:05.940Z,17.45
2023-05-23T06:50:34.745Z,17.38
2023-05-23T06:53:01.684Z,16.52
2023-05-23T06:55:28.463Z,15.13
2023-05-23T06:57:57.454Z,15.02
2023-05-23T07:00:24.747Z,13.05
2023-05-23T07:03:07.073Z,12.70
2023-05-23T07:05:34.488Z,14.27
2023-05-23T07:08:01.642Z,16.33
2023-05-23T07:10:28.512Z,19.92
2023-05-23T07:13:02.275Z,17.70
2023-05-23T07:15:29.793Z,19.50
2023-05-23T07:18:06.111Z,18.10
2023-05-23T07:20:34.099Z,18.75
2023-05-23T07:23:09.702Z,17.70
2023-05-23T07:25:40.336Z,19.05
2023-05-23T07:28:15.643Z,18.25
2023-05-23T07:30:42.998Z,19.05
2023-05-23T07:33:09.845Z,19.30
2023-05-23T07:35:37.543Z,19.50
2023-05-23T07:38:05.359Z,21.40
2023-05-23T07:40:32.267Z,25.85
2023-05-23T07:43:00.149Z,23.65
2023-05-23T07:45:26.957Z,25.25
2023-05-23T07:47:54.066Z,28.65
2023-05-23T07:50:20.820Z,26.45
2023-05-23T07:52:51.235Z,25.98
2023-05-23T07:55:24.317Z,27.02
2023-05-23T07:57:56.399Z,29.45
2023-05-23T08:00:24.628Z,28.80
2023-05-23T08:07:57.826Z,28.70
2023-05-23T08:10:28.177Z,28.58
2023-05-23T08:13:00.518Z,29.35
2023-05-23T08:15:31.825Z,28.70
2023-05-23T08:18:07.643Z,28.30
2023-05-23T08:20:34.427Z,28.98
2023-05-23T08:23:01.929Z,33.45
2023-05-23T08:25:32.380Z,33.95
2023-05-23T08:28:01.115Z,32.17
2023-05-23T08:30:42.789Z,36.67
2023-05-23T08:33:09.841Z,37.28
2023-05-23T08:35:38.799Z,37.67
2023-05-23T08:38:09.661Z,39.17
2023-05-23T08:40:48.123Z,40.60
2023-05-23T08:43:15.143Z,39.08
2023-05-23T08:45:42.554Z,43.92
2023-05-23T08:48:10.191Z,42.00
2023-05-23T08:50:44.210Z,37.90
2023-05-23T08:53:20.129Z,41.33
2023-05-23T08:55:55.686Z,40.92
2023-05-23T08:58:29.247Z,42.83
2023-05-23T09:00:57.649Z,43.17
2023-05-23T09:03:27.411Z,40.88
2023-05-23T09:06:21.965Z,38.50
2023-05-23T09:08:49.184Z,43.05
2023-05-23T09:11:18.550Z,41.20
2023-05-23T09:13:45.836Z,38.92
2023-05-23T09:16:20.079Z,39.42
2023-05-23T09:18:50.973Z,38.90
2023-05-23T09:21:20.779Z,43.67
2023-05-23T09:23:56.084Z,38.08
2023-05-23T09:26:22.924Z,37.72
2023-05-23T09:28:49.790Z,40.35
2023-05-23T09:31:16.575Z,41.25
2023-05-23T09:33:50.245Z,39.55
2023-05-23T09:36:19.234Z,43.88
2023-05-23T09:38:48.872Z,44.17
2023-05-23T09:41:15.779Z,47.55
2023-05-23T09:43:53.391Z,43.30
2023-05-23T09:46:22.050Z,42.83
2023-05-23T09:48:52.047Z,43.60
2023-05-23T09:51:21.612Z,49.03
2023-05-23T09:53:49.131Z,48.80
2023-05-23T09:56:19.711Z,44.25
2023-05-23T09:58:50.787Z,42.78
2023-05-23T10:01:17.922Z,44.95
2023-05-23T10:03:48.879Z,48.05
2023-05-23T10:06:35.141Z,44.15
2023-05-23T10:09:06.108Z,39.17
2023-05-23T10:11:35.670Z,38.20
2023-05-23T10:14:07.601Z,38.50
2023-05-23T10:16:39.860Z,37.20
2023-05-23T10:19:38.582Z,33.90
2023-05-23T10:22:09.364Z,33.80
2023-05-23T10:24:36.776Z,31.90
2023-05-23T10:27:03.854Z,29.33
2023-05-23T10:29:31.373Z,33.60
2023-05-23T10:31:58.599Z,29.77
2023-05-23T10:34:34.616Z,36.33
2023-05-23T10:37:06.303Z,35.35
2023-05-23T10:39:46.457Z,34.30
2023-05-23T10:42:22.597Z,34.17
2023-05-23T10:44:49.348Z,37.20
2023-05-23T10:47:29.183Z,36.17
2023-05-23T10:49:55.998Z,37.67
2023-05-23T10:52:26.548Z,41.05
2023-05-23T10:54:54.744Z,38.30
2023-05-23T10:57:25.472Z,39.03
2023-05-23T10:59:52.305Z,36.33
2023-05-23T11:02:26.275Z,39.35
2023-05-23T11:05:22.715Z,43.42
2023-05-23T11:08:09.790Z,39.33
2023-05-23T11:10:56.143Z,38.80
2023-05-23T11:13:23.399Z,38.22
2023-05-23T11:15:50.828Z,39.22
2023-05-23T11:18:26.507Z,36.72
2023-05-23T11:20:54.659Z,39.25
2023-05-23T11:23:22.170Z,33.13
2023-05-23T11:25:53.829Z,16.17
2023-05-23T11:28:20.954Z,13.77
2023-05-23T11:30:49.610Z,11.63
2023-05-23T11:33:18.207Z,13.40
2023-05-23T11:35:49.601Z,15.20
2023-05-23T11:38:17.324Z,19.38
2023-05-23T11:40:46.334Z,22.13
2023-05-23T11:43:17.780Z,25.60
2023-05-23T11:45:46.759Z,25.83
2023-05-23T11:48:16.459Z,31.85
2023-05-23T11:50:51.315Z,31.27
2023-05-23T11:53:21.542Z,35.17
2023-05-23T11:55:54.361Z,40.78
2023-05-23T11:58:22.922Z,37.15
2023-05-23T12:00:49.896Z,39.17
2023-05-23T12:03:17.033Z,38.70
2023-05-23T12:05:45.475Z,39.22
2023-05-23T12:08:13.824Z,35.00
2023-05-23T12:10:51.294Z,35.63
2023-05-23T12:13:18.422Z,38.40
2023-05-23T12:15:45.249Z,31.55
2023-05-23T12:18:12.863Z,35.58
2023-05-23T12:20:41.931Z,34.83
2023-05-23T12:23:09.103Z,33.88
2023-05-23T12:25:42.516Z,36.40
2023-05-23T12:28:13.614Z,38.33
2023-05-23T12:30:43.491Z,33.92
2023-05-23T12:33:11.933Z,32.50
2023-05-23T12:35:43.025Z,37.15
2023-05-23T12:38:09.920Z,32.40
2023-05-23T12:40:36.648Z,32.72
2023-05-23T12:43:03.383Z,31.88
2023-05-23T12:45:34.990Z,32.30
2023-05-23T12:48:02.453Z,33.77
2023-05-23T12:50:29.768Z,29.63
2023-05-23T12:52:56.952Z,27.65
2023-05-23T12:55:23.674Z,27.60
2023-05-23T12:57:50.868Z,27.63
2023-05-23T13:00:19.312Z,30.27
2023-05-23T13:02:46.472Z,29.65
2023-05-23T13:05:13.305Z,30.05
2023-05-23T13:07:40.060Z,27.48
2023-05-23T13:10:07.380Z,27.83
2023-05-23T13:12:34.721Z,26.27
2023-05-23T13:15:01.521Z,27.13
2023-05-23T13:17:28.412Z,27.98
2023-05-23T13:19:55.139Z,26.88
2023-05-23T13:22:21.827Z,27.27
2023-05-23T13:24:48.527Z,26.88
2023-05-23T13:27:15.249Z,24.20
2023-05-23T13:29:42.232Z,25.40
2023-05-23T13:32:09.069Z,22.38
2023-05-23T13:34:37.472Z,24.23
2023-05-23T13:37:05.559Z,26.25
2023-05-23T13:39:32.280Z,25.88
2023-05-23T13:41:59.066Z,22.13
2023-05-23T13:44:25.848Z,22.52
2023-05-23T13:46:52.785Z,25.55
2023-05-23T13:49:19.561Z,22.30
2023-05-23T13:51:46.409Z,25.15
2023-05-23T13:54:13.835Z,15.73
2023-05-23T13:56:41.275Z,16.45
2023-05-23T13:59:08.002Z,20.83
2023-05-23T14:01:34.797Z,19.40
2023-05-23T14:04:01.650Z,18.17
2023-05-23T14:06:28.346Z,20.58
2023-05-23T14:08:55.839Z,19.63
2023-05-23T14:11:22.583Z,19.65
2023-05-23T14:13:49.291Z,17.45
2023-05-23T14:16:17.076Z,19.25
2023-05-23T14:18:45.185Z,15.48
2023-05-23T14:21:12.046Z,16.45
2023-05-23T14:23:38.812Z,14.90
2023-05-23T14:26:05.832Z,13.93
2023-05-23T14:28:32.518Z,19.58
2023-05-23T14:30:59.291Z,18.10
2023-05-23T14:33:26.268Z,17.63
2023-05-23T14:35:53.196Z,21.17
2023-05-23T14:38:20.172Z,17.98
2023-05-23T14:40:47.286Z,23.00
2023-05-23T14:43:14.157Z,25.10
2023-05-23T14:45:41.147Z,22.92
2023-05-23T14:48:09.405Z,21.23
2023-05-23T14:50:36.497Z,18.75
2023-05-23T14:53:03.346Z,21.77
2023-05-23T14:55:30.051Z,15.93
2023-05-23T14:57:57.786Z,12.35
2023-05-23T15:00:24.965Z,13.15
2023-05-23T15:02:52.136Z,10.57
2023-05-23T15:05:18.928Z,12.15
2023-05-23T15:07:46.266Z,12.40
2023-05-23T15:10:13.012Z,11.55
2023-05-23T15:12:39.720Z,11.73
2023-05-23T15:15:06.929Z,12.98
2023-05-23T15:17:34.158Z,12.00
2023-05-23T15:20:01.883Z,11.52
2023-05-23T15:22:38.666Z,13.95
2023-05-23T15:25:08.229Z,10.13
2023-05-23T15:27:35.181Z,12.57
2023-05-23T15:30:03.212Z,10.68
2023-05-23T15:32:30.088Z,12.50
2023-05-23T15:34:56.875Z,12.40
2023-05-23T15:37:23.583Z,11.18
2023-05-23T15:39:50.311Z,11.15
2023-05-23T15:42:16.992Z,11.73
2023-05-23T15:44:43.750Z,11.35
2023-05-23T15:47:11.214Z,10.88
2023-05-23T15:49:37.946Z,10.90
2023-05-23T15:52:04.897Z,12.88
2023-05-23T15:54:31.611Z,9.55
2023-05-23T15:56:58.317Z,9.80
2023-05-23T15:59:25.010Z,10.68
2023-05-23T16:01:51.782Z,32.22
2023-05-23T16:04:18.633Z,10.65
2023-05-23T16:06:45.440Z,14.27
2023-05-23T16:09:12.186Z,14.20
2023-05-23T16:11:38.955Z,13.20
2023-05-23T16:14:06.391Z,10.40
2023-05-23T16:16:33.185Z,11.25
2023-05-23T16:19:00.218Z,18.00
2023-05-23T16:21:26.999Z,18.00
2023-05-23T16:23:53.756Z,17.00
2023-05-23T16:26:20.926Z,15.77
2023-05-23T16:28:47.706Z,15.02
2023-05-23T16:31:15.657Z,18.33
2023-05-23T16:33:43.315Z,14.48
2023-05-23T16:36:10.041Z,22.88
2023-05-23T16:38:36.746Z,12.88
2023-05-23T16:41:03.617Z,12.40
2023-05-23T16:43:30.357Z,13.23
2023-05-23T16:45:57.139Z,13.50
2023-05-23T16:48:23.957Z,13.10
2023-05-23T16:50:50.760Z,13.90
2023-05-23T16:53:17.556Z,15.32
2023-05-23T16:55:45.924Z,15.95
2023-05-23T16:58:12.724Z,15.70
2023-05-23T17:00:39.616Z,15.32
2023-05-23T17:03:06.686Z,16.15
2023-05-23T17:05:34.382Z,15.45
2023-05-23T17:08:01.579Z,16.13
2023-05-23T17:10:28.470Z,16.65
2023-05-23T17:12:55.216Z,18.05
2023-05-23T17:15:47.787Z,20.42
2023-05-23T17:18:14.539Z,17.35
2023-05-23T17:20:41.243Z,17.63
2023-05-23T17:23:08.013Z,15.45
2023-05-23T17:25:34.724Z,17.23
2023-05-23T17:28:01.413Z,18.25
2023-05-23T17:30:28.285Z,15.73
2023-05-23T17:32:55.070Z,15.93
2023-05-23T17:35:23.316Z,17.33
2023-05-23T17:37:50.379Z,16.15
2023-05-23T17:40:17.556Z,14.57
2023-05-23T17:42:44.889Z,15.43
2023-05-23T17:45:11.865Z,13.38
2023-05-23T17:47:39.228Z,14.50
2023-05-23T17:50:07.222Z,15.75
2023-05-23T17:52:34.534Z,13.55
2023-05-23T17:55:01.769Z,13.57
2023-05-23T17:57:30.497Z,14.80
2023-05-23T17:59:57.666Z,12.10
2023-05-23T18:02:24.472Z,13.50
2023-05-23T18:04:51.540Z,14.43
2023-05-23T18:07:21.285Z,15.50
2023-05-23T18:09:48.610Z,12.82
2023-05-23T18:12:16.441Z,13.45
2023-05-23T18:14:43.652Z,12.00
2023-05-23T18:17:10.575Z,10.80
2023-05-23T18:19:37.550Z,11.90
2023-05-23T18:22:04.542Z,13.13
2023-05-23T18:24:31.283Z,10.45
2023-05-23T18:26:58.343Z,13.05
2023-05-23T18:29:25.087Z,15.55
2023-05-23T18:31:51.791Z,12.75
2023-05-23T18:34:18.684Z,15.45
2023-05-23T18:36:45.669Z,12.98
2023-05-23T18:39:12.571Z,11.48
2023-05-23T18:41:39.788Z,11.25
2023-05-23T18:44:06.484Z,9.05
2023-05-23T18:46:33.283Z,9.23
2023-05-23T18:49:00.150Z,11.48
2023-05-23T18:51:26.849Z,9.52
2023-05-23T18:53:53.569Z,9.02
2023-05-23T18:56:21.643Z,10.98
2023-05-23T18:58:49.891Z,12.00
2023-05-23T19:01:16.943Z,9.05
2023-05-23T19:03:45.678Z,8.82
2023-05-23T19:06:12.529Z,9.23
2023-05-23T19:08:40.884Z,10.18
2023-05-23T19:11:07.717Z,9.63
2023-05-23T19:13:34.552Z,9.43
2023-05-23T19:16:01.934Z,9.65
2023-05-23T19:18:28.740Z,9.25
2023-05-23T19:20:56.451Z,11.70
2023-05-23T19:23:23.238Z,10.13
2023-05-23T19:25:49.949Z,9.40
2023-05-23T19:28:17.005Z,8.35
2023-05-23T19:30:44.393Z,8.65
2023-05-23T19:33:11.494Z,10.82
2023-05-23T19:35:38.487Z,11.07
2023-05-23T19:38:05.742Z,8.35
2023-05-23T19:40:32.463Z,9.02
2023-05-23T19:42:59.172Z,7.30
2023-05-23T19:45:25.966Z,9.73
2023-05-23T19:47:52.667Z,8.48
2023-05-23T19:50:19.497Z,7.80
2023-05-23T19:52:46.202Z,9.15
2023-05-23T19:55:14.197Z,10.38
2023-05-23T19:57:41.911Z,11.70
2023-05-23T20:00:10.458Z,8.93
2023-05-23T20:02:37.369Z,9.95
2023-05-23T20:05:04.389Z,10.73
2023-05-23T20:07:31.237Z,8.90
2023-05-23T20:09:58.067Z,8.30
2023-05-23T20:12:25.084Z,8.48
2023-05-23T20:14:51.809Z,9.43
2023-05-23T20:17:18.586Z,10.60
2023-05-23T20:19:45.309Z,10.45
2023-05-23T20:22:12.017Z,10.77
2023-05-23T20:24:38.764Z,8.02
2023-05-23T20:27:06.726Z,9.23
2023-05-23T20:29:34.951Z,11.70
2023-05-23T20:32:02.187Z,10.40
2023-05-23T20:34:28.926Z,12.05
2023-05-23T20:36:55.821Z,10.35
2023-05-23T20:39:23.968Z,9.77
2023-05-23T20:41:50.767Z,11.05
2023-05-23T20:44:20.499Z,9.82
2023-05-23T20:46:47.538Z,8.95
2023-05-23T20:49:15.689Z,10.20
2023-05-23T20:51:43.280Z,9.50
2023-05-23T20:54:10.038Z,9.40
2023-05-23T20:56:36.860Z,13.02
2023-05-23T20:59:03.566Z,8.90
2023-05-23T21:01:30.433Z,8.88
2023-05-23T21:03:57.261Z,9.23
2023-05-23T21:06:23.949Z,8.60
2023-05-23T21:08:50.686Z,8.57
2023-05-23T21:11:17.377Z,12.50
2023-05-23T21:13:44.637Z,11.23
2023-05-23T21:16:14.301Z,9.82
2023-05-23T21:18:41.090Z,10.23
2023-05-23T21:21:07.832Z,8.80
2023-05-23T21:23:34.565Z,10.70
2023-05-23T21:26:01.341Z,9.93
2023-05-23T21:28:28.140Z,10.25
2023-05-23T21:30:55.382Z,9.63
2023-05-23T21:33:22.310Z,12.00
2023-05-23T21:35:49.263Z,11.88
2023-05-23T21:38:16.044Z,13.27
2023-05-23T21:40:43.002Z,9.10
2023-05-23T21:43:09.915Z,9.43
2023-05-23T21:45:36.613Z,9.48
2023-05-23T21:48:03.408Z,8.70
2023-05-23T21:50:30.265Z,10.10
2023-05-23T21:52:56.987Z,9.82
2023-05-23T21:55:23.882Z,10.15
2023-05-23T21:57:50.738Z,7.60
2023-05-23T22:00:19.705Z,9.30
2023-05-23T22:02:47.290Z,11.95
2023-05-23T22:05:14.170Z,8.88
2023-05-23T22:07:40.923Z,9.27
2023-05-23T22:10:08.161Z,9.65
2023-05-23T22:12:34.920Z,10.88
2023-05-23T22:15:01.667Z,8.07
2023-05-23T22:17:29.577Z,8.15
2023-05-23T22:19:57.987Z,9.90
2023-05-23T22:22:24.707Z,9.38
2023-05-23T22:24:51.798Z,8.38
2023-05-23T22:27:18.588Z,9.05
2023-05-23T22:29:45.452Z,8.07
2023-05-23T22:32:12.182Z,7.80
2023-05-23T22:34:38.918Z,8.95
2023-05-23T22:37:05.706Z,8.63
2023-05-23T22:39:32.465Z,8.38
2023-05-23T22:41:59.219Z,8.20
2023-05-23T22:44:26.173Z,9.50
2023-05-23T22:46:52.961Z,6.97
2023-05-23T22:49:22.211Z,8.43
2023-05-23T22:51:48.987Z,7.32
2023-05-23T22:54:15.691Z,6.72
2023-05-23T22:56:42.541Z,8.52
2023-05-23T22:59:09.331Z,6.28
2023-05-23T23:01:36.412Z,6.30
2023-05-23T23:04:03.216Z,6.90
2023-05-23T23:06:29.962Z,6.43
2023-05-23T23:08:56.769Z,6.43
2023-05-23T23:11:23.518Z,8.73
2023-05-23T23:13:50.293Z,7.05
2023-05-23T23:16:19.439Z,7.00
2023-05-23T23:18:47.083Z,7.60
2023-05-23T23:21:13.871Z,9.73
2023-05-23T23:23:40.880Z,7.43
2023-05-23T23:26:07.635Z,5.88
2023-05-23T23:28:34.417Z,7.55
2023-05-23T23:31:01.244Z,7.07
2023-05-23T23:33:28.100Z,5.75
2023-05-23T23:35:54.881Z,5.80
2023-05-23T23:38:21.631Z,6.30
2023-05-23T23:40:48.349Z,5.90
2023-05-23T23:43:15.166Z,7.03
2023-05-23T23:45:41.971Z,6.55
2023-05-23T23:48:08.805Z,5.75
2023-05-23T23:50:35.718Z,5.50
2023-05-23T23:53:02.432Z,6.82
2023-05-23T23:55:29.131Z,6.60
2023-05-23T23:57:56.109Z,9.32
